sensor_id;sensor_type;location;lat;lon;timestamp;temperature;humidity
21807;DHT22;11065;50.786;7.840;2024-01-25T00:01:16;12.30;51.40
21807;DHT22;11065;50.786;7.840;2024-01-25T00:03:44;12.30;51.30
21807;DHT22;11065;50.786;7.840;2024-01-25T00:06:13;12.30;51.40
21807;DHT22;11065;50.786;7.840;2024-01-25T00:08:41;12.30;51.40
21807;DHT22;11065;50.786;7.840;2024-01-25T00:11:10;12.30;51.50
21807;DHT22;11065;50.786;7.840;2024-01-25T00:13:38;12.30;51.40
21807;DHT22;11065;50.786;7.840;2024-01-25T00:16:06;12.40;51.50
21807;DHT22;11065;50.786;7.840;2024-01-25T00:18:34;12.30;51.50
21807;DHT22;11065;50.786;7.840;2024-01-25T00:21:02;12.30;51.50
21807;DHT22;11065;50.786;7.840;2024-01-25T00:23:32;12.30;51.50
21807;DHT22;11065;50.786;7.840;2024-01-25T00:26:00;12.30;51.50
21807;DHT22;11065;50.786;7.840;2024-01-25T00:28:29;12.30;51.50
21807;DHT22;11065;50.786;7.840;2024-01-25T00:30:57;12.30;51.50
21807;DHT22;11065;50.786;7.840;2024-01-25T00:33:25;12.30;51.50
21807;DHT22;11065;50.786;7.840;2024-01-25T00:35:53;12.30;51.60
21807;DHT22;11065;50.786;7.840;2024-01-25T00:38:22;12.30;51.70
21807;DHT22;11065;50.786;7.840;2024-01-25T00:40:52;12.30;51.80
21807;DHT22;11065;50.786;7.840;2024-01-25T00:43:20;12.30;51.70
21807;DHT22;11065;50.786;7.840;2024-01-25T00:45:49;12.30;51.70
21807;DHT22;11065;50.786;7.840;2024-01-25T00:48:17;12.30;51.70
21807;DHT22;11065;50.786;7.840;2024-01-25T00:50:46;12.30;51.70
21807;DHT22;11065;50.786;7.840;2024-01-25T00:53:14;12.30;51.70
21807;DHT22;11065;50.786;7.840;2024-01-25T00:55:44;12.30;51.80
21807;DHT22;11065;50.786;7.840;2024-01-25T00:58:14;12.30;51.90
21807;DHT22;11065;50.786;7.840;2024-01-25T01:00:43;12.30;51.80
21807;DHT22;11065;50.786;7.840;2024-01-25T01:03:11;12.30;51.80
21807;DHT22;11065;50.786;7.840;2024-01-25T01:05:40;12.30;51.80
21807;DHT22;11065;50.786;7.840;2024-01-25T01:08:11;12.30;51.80
21807;DHT22;11065;50.786;7.840;2024-01-25T01:10:39;12.30;51.80
21807;DHT22;11065;50.786;7.840;2024-01-25T01:13:07;12.30;51.80
21807;DHT22;11065;50.786;7.840;2024-01-25T01:15:37;12.30;51.90
21807;DHT22;11065;50.786;7.840;2024-01-25T01:18:05;12.30;51.90
21807;DHT22;11065;50.786;7.840;2024-01-25T01:20:33;12.30;51.80
21807;DHT22;11065;50.786;7.840;2024-01-25T01:23:01;12.30;51.90
21807;DHT22;11065;50.786;7.840;2024-01-25T01:25:29;12.30;51.90
21807;DHT22;11065;50.786;7.840;2024-01-25T01:27:57;12.30;52.00
21807;DHT22;11065;50.786;7.840;2024-01-25T01:30:25;12.30;51.90
21807;DHT22;11065;50.786;7.840;2024-01-25T01:32:54;12.30;52.00
21807;DHT22;11065;50.786;7.840;2024-01-25T01:35:22;12.20;51.90
21807;DHT22;11065;50.786;7.840;2024-01-25T01:37:50;12.20;51.90
21807;DHT22;11065;50.786;7.840;2024-01-25T01:40:18;12.20;51.90
21807;DHT22;11065;50.786;7.840;2024-01-25T01:42:46;12.20;52.10
21807;DHT22;11065;50.786;7.840;2024-01-25T01:45:14;12.20;52.00
21807;DHT22;11065;50.786;7.840;2024-01-25T01:47:42;12.20;51.90
21807;DHT22;11065;50.786;7.840;2024-01-25T01:50:12;12.20;52.10
21807;DHT22;11065;50.786;7.840;2024-01-25T01:52:40;12.20;52.10
21807;DHT22;11065;50.786;7.840;2024-01-25T01:55:08;12.20;52.20
21807;DHT22;11065;50.786;7.840;2024-01-25T01:57:37;12.20;52.00
21807;DHT22;11065;50.786;7.840;2024-01-25T02:00:07;12.20;52.10
21807;DHT22;11065;50.786;7.840;2024-01-25T02:02:39;12.10;52.10
21807;DHT22;11065;50.786;7.840;2024-01-25T02:05:07;12.10;52.10
21807;DHT22;11065;50.786;7.840;2024-01-25T02:07:37;12.10;52.10
21807;DHT22;11065;50.786;7.840;2024-01-25T02:10:08;12.10;52.10
21807;DHT22;11065;50.786;7.840;2024-01-25T02:12:37;12.10;52.00
21807;DHT22;11065;50.786;7.840;2024-01-25T02:15:06;12.10;52.00
21807;DHT22;11065;50.786;7.840;2024-01-25T02:17:34;12.10;52.00
21807;DHT22;11065;50.786;7.840;2024-01-25T02:20:02;12.10;52.00
21807;DHT22;11065;50.786;7.840;2024-01-25T02:22:33;12.10;52.00
21807;DHT22;11065;50.786;7.840;2024-01-25T02:25:01;12.10;52.50
21807;DHT22;11065;50.786;7.840;2024-01-25T02:27:29;12.10;52.30
21807;DHT22;11065;50.786;7.840;2024-01-25T02:29:57;12.10;52.10
21807;DHT22;11065;50.786;7.840;2024-01-25T02:32:25;12.10;52.10
21807;DHT22;11065;50.786;7.840;2024-01-25T02:34:53;12.10;52.20
21807;DHT22;11065;50.786;7.840;2024-01-25T02:37:21;12.10;52.20
21807;DHT22;11065;50.786;7.840;2024-01-25T02:39:51;12.10;52.20
21807;DHT22;11065;50.786;7.840;2024-01-25T02:42:19;12.10;52.20
21807;DHT22;11065;50.786;7.840;2024-01-25T02:44:47;12.10;52.20
21807;DHT22;11065;50.786;7.840;2024-01-25T02:47:15;12.10;52.20
21807;DHT22;11065;50.786;7.840;2024-01-25T02:49:44;12.10;52.10
21807;DHT22;11065;50.786;7.840;2024-01-25T02:52:12;12.10;52.10
21807;DHT22;11065;50.786;7.840;2024-01-25T02:54:40;12.10;52.10
21807;DHT22;11065;50.786;7.840;2024-01-25T02:57:10;12.10;52.10
21807;DHT22;11065;50.786;7.840;2024-01-25T02:59:38;12.10;52.10
21807;DHT22;11065;50.786;7.840;2024-01-25T03:02:06;12.00;52.10
21807;DHT22;11065;50.786;7.840;2024-01-25T03:04:34;12.00;52.10
21807;DHT22;11065;50.786;7.840;2024-01-25T03:07:02;12.10;52.10
21807;DHT22;11065;50.786;7.840;2024-01-25T03:09:30;12.00;52.00
21807;DHT22;11065;50.786;7.840;2024-01-25T03:11:58;12.00;52.00
21807;DHT22;11065;50.786;7.840;2024-01-25T03:14:28;12.10;52.10
21807;DHT22;11065;50.786;7.840;2024-01-25T03:16:55;12.00;52.00
21807;DHT22;11065;50.786;7.840;2024-01-25T03:19:24;12.00;52.00
21807;DHT22;11065;50.786;7.840;2024-01-25T03:21:52;12.10;52.10
21807;DHT22;11065;50.786;7.840;2024-01-25T03:24:21;12.10;52.10
21807;DHT22;11065;50.786;7.840;2024-01-25T03:26:49;12.00;52.10
21807;DHT22;11065;50.786;7.840;2024-01-25T03:29:17;12.00;52.00
21807;DHT22;11065;50.786;7.840;2024-01-25T03:31:46;12.00;52.00
21807;DHT22;11065;50.786;7.840;2024-01-25T03:34:14;12.00;52.10
21807;DHT22;11065;50.786;7.840;2024-01-25T03:36:43;12.00;52.10
21807;DHT22;11065;50.786;7.840;2024-01-25T03:39:10;12.00;52.10
21807;DHT22;11065;50.786;7.840;2024-01-25T03:41:38;12.00;52.00
21807;DHT22;11065;50.786;7.840;2024-01-25T03:44:06;11.90;51.90
21807;DHT22;11065;50.786;7.840;2024-01-25T03:46:34;12.00;52.00
21807;DHT22;11065;50.786;7.840;2024-01-25T03:49:04;12.00;52.00
21807;DHT22;11065;50.786;7.840;2024-01-25T03:51:32;11.90;51.90
21807;DHT22;11065;50.786;7.840;2024-01-25T03:53:59;11.90;52.00
21807;DHT22;11065;50.786;7.840;2024-01-25T03:56:27;11.90;51.90
21807;DHT22;11065;50.786;7.840;2024-01-25T03:58:55;11.80;51.80
21807;DHT22;11065;50.786;7.840;2024-01-25T04:01:23;11.80;51.80
21807;DHT22;11065;50.786;7.840;2024-01-25T04:03:54;11.80;51.80
21807;DHT22;11065;50.786;7.840;2024-01-25T04:06:23;11.70;51.80
21807;DHT22;11065;50.786;7.840;2024-01-25T04:08:51;11.60;51.90
21807;DHT22;11065;50.786;7.840;2024-01-25T04:11:19;11.60;51.80
21807;DHT22;11065;50.786;7.840;2024-01-25T04:13:47;11.60;51.80
21807;DHT22;11065;50.786;7.840;2024-01-25T04:16:16;11.50;51.90
21807;DHT22;11065;50.786;7.840;2024-01-25T04:18:44;11.50;51.90
21807;DHT22;11065;50.786;7.840;2024-01-25T04:21:12;11.40;51.90
21807;DHT22;11065;50.786;7.840;2024-01-25T04:23:42;11.40;52.10
21807;DHT22;11065;50.786;7.840;2024-01-25T04:26:10;11.40;52.10
21807;DHT22;11065;50.786;7.840;2024-01-25T04:28:37;11.30;52.00
21807;DHT22;11065;50.786;7.840;2024-01-25T04:31:05;11.20;52.00
21807;DHT22;11065;50.786;7.840;2024-01-25T04:33:33;11.20;52.10
21807;DHT22;11065;50.786;7.840;2024-01-25T04:36:02;11.20;52.20
21807;DHT22;11065;50.786;7.840;2024-01-25T04:38:30;11.20;52.30
21807;DHT22;11065;50.786;7.840;2024-01-25T04:40:59;11.20;52.40
21807;DHT22;11065;50.786;7.840;2024-01-25T04:43:27;11.10;52.40
21807;DHT22;11065;50.786;7.840;2024-01-25T04:45:55;11.10;52.40
21807;DHT22;11065;50.786;7.840;2024-01-25T04:48:23;11.10;52.40
21807;DHT22;11065;50.786;7.840;2024-01-25T04:50:52;11.10;52.40
21807;DHT22;11065;50.786;7.840;2024-01-25T04:53:20;11.10;52.40
21807;DHT22;11065;50.786;7.840;2024-01-25T04:55:47;11.10;52.50
21807;DHT22;11065;50.786;7.840;2024-01-25T04:58:17;11.00;52.50
21807;DHT22;11065;50.786;7.840;2024-01-25T05:00:45;11.00;52.50
21807;DHT22;11065;50.786;7.840;2024-01-25T05:03:13;11.10;52.60
21807;DHT22;11065;50.786;7.840;2024-01-25T05:05:42;11.10;52.60
21807;DHT22;11065;50.786;7.840;2024-01-25T05:08:10;11.00;52.60
21807;DHT22;11065;50.786;7.840;2024-01-25T05:10:38;11.00;52.70
21807;DHT22;11065;50.786;7.840;2024-01-25T05:13:07;11.00;52.70
21807;DHT22;11065;50.786;7.840;2024-01-25T05:15:36;11.00;52.70
21807;DHT22;11065;50.786;7.840;2024-01-25T05:18:05;11.10;52.80
21807;DHT22;11065;50.786;7.840;2024-01-25T05:20:34;11.10;52.80
21807;DHT22;11065;50.786;7.840;2024-01-25T05:23:04;11.10;52.80
21807;DHT22;11065;50.786;7.840;2024-01-25T05:25:32;11.10;52.80
21807;DHT22;11065;50.786;7.840;2024-01-25T05:28:00;11.10;52.80
21807;DHT22;11065;50.786;7.840;2024-01-25T05:30:29;11.10;52.90
21807;DHT22;11065;50.786;7.840;2024-01-25T05:32:58;11.10;52.80
21807;DHT22;11065;50.786;7.840;2024-01-25T05:35:27;11.10;52.80
21807;DHT22;11065;50.786;7.840;2024-01-25T05:37:56;11.10;52.70
21807;DHT22;11065;50.786;7.840;2024-01-25T05:40:24;11.10;52.80
21807;DHT22;11065;50.786;7.840;2024-01-25T05:42:52;11.10;52.80
21807;DHT22;11065;50.786;7.840;2024-01-25T05:45:20;11.10;52.80
21807;DHT22;11065;50.786;7.840;2024-01-25T05:47:48;11.10;52.90
21807;DHT22;11065;50.786;7.840;2024-01-25T05:50:18;11.00;52.90
21807;DHT22;11065;50.786;7.840;2024-01-25T05:52:46;11.00;53.10
21807;DHT22;11065;50.786;7.840;2024-01-25T05:55:14;11.00;53.00
21807;DHT22;11065;50.786;7.840;2024-01-25T05:57:43;11.00;53.30
21807;DHT22;11065;50.786;7.840;2024-01-25T06:00:12;10.90;53.20
21807;DHT22;11065;50.786;7.840;2024-01-25T06:02:46;10.90;53.60
21807;DHT22;11065;50.786;7.840;2024-01-25T06:05:14;10.80;53.20
21807;DHT22;11065;50.786;7.840;2024-01-25T06:07:44;10.80;53.10
21807;DHT22;11065;50.786;7.840;2024-01-25T06:10:12;10.80;53.20
21807;DHT22;11065;50.786;7.840;2024-01-25T06:12:40;10.80;53.30
21807;DHT22;11065;50.786;7.840;2024-01-25T06:15:09;10.80;53.30
21807;DHT22;11065;50.786;7.840;2024-01-25T06:17:37;10.70;53.40
21807;DHT22;11065;50.786;7.840;2024-01-25T06:20:04;10.70;53.40
21807;DHT22;11065;50.786;7.840;2024-01-25T06:22:33;10.70;53.40
21807;DHT22;11065;50.786;7.840;2024-01-25T06:25:03;10.70;53.40
21807;DHT22;11065;50.786;7.840;2024-01-25T06:27:34;10.70;53.50
21807;DHT22;11065;50.786;7.840;2024-01-25T06:30:03;10.70;53.60
21807;DHT22;11065;50.786;7.840;2024-01-25T06:32:31;10.70;53.70
21807;DHT22;11065;50.786;7.840;2024-01-25T06:34:59;10.70;53.60
21807;DHT22;11065;50.786;7.840;2024-01-25T06:37:27;10.70;53.60
21807;DHT22;11065;50.786;7.840;2024-01-25T06:39:55;10.60;54.10
21807;DHT22;11065;50.786;7.840;2024-01-25T06:42:24;10.60;53.50
21807;DHT22;11065;50.786;7.840;2024-01-25T06:44:52;10.60;53.70
21807;DHT22;11065;50.786;7.840;2024-01-25T06:47:20;10.60;53.60
21807;DHT22;11065;50.786;7.840;2024-01-25T06:49:50;10.60;53.80
21807;DHT22;11065;50.786;7.840;2024-01-25T06:52:18;10.60;53.70
21807;DHT22;11065;50.786;7.840;2024-01-25T06:54:47;10.50;53.70
21807;DHT22;11065;50.786;7.840;2024-01-25T06:57:15;10.50;53.80
21807;DHT22;11065;50.786;7.840;2024-01-25T06:59:44;10.50;54.00
21807;DHT22;11065;50.786;7.840;2024-01-25T07:02:13;10.50;54.00
21807;DHT22;11065;50.786;7.840;2024-01-25T07:04:41;10.50;54.00
21807;DHT22;11065;50.786;7.840;2024-01-25T07:07:10;10.50;54.20
21807;DHT22;11065;50.786;7.840;2024-01-25T07:09:38;10.50;54.00
21807;DHT22;11065;50.786;7.840;2024-01-25T07:12:06;10.50;53.80
21807;DHT22;11065;50.786;7.840;2024-01-25T07:14:34;10.50;53.70
21807;DHT22;11065;50.786;7.840;2024-01-25T07:17:04;10.50;53.70
21807;DHT22;11065;50.786;7.840;2024-01-25T07:19:32;10.40;53.60
21807;DHT22;11065;50.786;7.840;2024-01-25T07:22:00;10.40;53.60
21807;DHT22;11065;50.786;7.840;2024-01-25T07:24:28;10.40;53.60
21807;DHT22;11065;50.786;7.840;2024-01-25T07:26:56;10.40;53.60
21807;DHT22;11065;50.786;7.840;2024-01-25T07:29:24;10.30;53.70
21807;DHT22;11065;50.786;7.840;2024-01-25T07:31:52;10.30;53.80
21807;DHT22;11065;50.786;7.840;2024-01-25T07:34:22;10.30;54.00
21807;DHT22;11065;50.786;7.840;2024-01-25T07:36:50;10.30;54.20
21807;DHT22;11065;50.786;7.840;2024-01-25T07:39:18;10.30;54.30
21807;DHT22;11065;50.786;7.840;2024-01-25T07:41:46;10.30;54.40
21807;DHT22;11065;50.786;7.840;2024-01-25T07:44:14;10.30;54.50
21807;DHT22;11065;50.786;7.840;2024-01-25T07:46:42;10.40;54.60
21807;DHT22;11065;50.786;7.840;2024-01-25T07:49:10;10.40;54.50
21807;DHT22;11065;50.786;7.840;2024-01-25T07:51:39;10.40;54.40
21807;DHT22;11065;50.786;7.840;2024-01-25T07:54:07;10.50;54.40
21807;DHT22;11065;50.786;7.840;2024-01-25T07:56:35;10.50;54.30
21807;DHT22;11065;50.786;7.840;2024-01-25T07:59:03;10.50;54.20
21807;DHT22;11065;50.786;7.840;2024-01-25T08:01:31;10.60;54.30
21807;DHT22;11065;50.786;7.840;2024-01-25T08:04:00;10.60;54.20
21807;DHT22;11065;50.786;7.840;2024-01-25T08:06:28;10.60;54.20
21807;DHT22;11065;50.786;7.840;2024-01-25T08:08:57;10.60;54.20
21807;DHT22;11065;50.786;7.840;2024-01-25T08:11:25;10.60;54.20
21807;DHT22;11065;50.786;7.840;2024-01-25T08:13:53;10.60;54.20
21807;DHT22;11065;50.786;7.840;2024-01-25T08:16:21;10.60;54.20
21807;DHT22;11065;50.786;7.840;2024-01-25T08:18:49;10.60;54.30
21807;DHT22;11065;50.786;7.840;2024-01-25T08:21:18;10.70;54.30
21807;DHT22;11065;50.786;7.840;2024-01-25T08:23:46;10.70;54.30
21807;DHT22;11065;50.786;7.840;2024-01-25T08:26:15;10.70;54.30
21807;DHT22;11065;50.786;7.840;2024-01-25T08:28:43;10.70;54.30
21807;DHT22;11065;50.786;7.840;2024-01-25T08:31:12;10.80;54.60
21807;DHT22;11065;50.786;7.840;2024-01-25T08:33:40;10.80;54.60
21807;DHT22;11065;50.786;7.840;2024-01-25T08:36:12;10.80;54.70
21807;DHT22;11065;50.786;7.840;2024-01-25T08:38:40;10.90;54.80
21807;DHT22;11065;50.786;7.840;2024-01-25T08:41:08;10.90;54.90
21807;DHT22;11065;50.786;7.840;2024-01-25T08:43:39;11.00;54.70
21807;DHT22;11065;50.786;7.840;2024-01-25T08:46:07;11.00;54.60
21807;DHT22;11065;50.786;7.840;2024-01-25T08:48:35;11.00;54.40
21807;DHT22;11065;50.786;7.840;2024-01-25T08:51:04;11.10;54.40
21807;DHT22;11065;50.786;7.840;2024-01-25T08:53:32;11.10;54.30
21807;DHT22;11065;50.786;7.840;2024-01-25T08:55:59;11.10;54.20
21807;DHT22;11065;50.786;7.840;2024-01-25T08:58:31;11.10;54.20
21807;DHT22;11065;50.786;7.840;2024-01-25T09:01:01;11.10;54.30
21807;DHT22;11065;50.786;7.840;2024-01-25T09:03:29;11.10;54.40
21807;DHT22;11065;50.786;7.840;2024-01-25T09:05:57;11.10;54.40
21807;DHT22;11065;50.786;7.840;2024-01-25T09:08:32;11.20;54.60
21807;DHT22;11065;50.786;7.840;2024-01-25T09:11:00;11.20;54.60
21807;DHT22;11065;50.786;7.840;2024-01-25T09:13:28;11.20;54.40
21807;DHT22;11065;50.786;7.840;2024-01-25T09:15:56;11.20;54.60
21807;DHT22;11065;50.786;7.840;2024-01-25T09:18:26;11.30;54.40
21807;DHT22;11065;50.786;7.840;2024-01-25T09:20:54;11.30;54.20
21807;DHT22;11065;50.786;7.840;2024-01-25T09:23:22;11.30;54.20
21807;DHT22;11065;50.786;7.840;2024-01-25T09:25:50;11.30;54.20
21807;DHT22;11065;50.786;7.840;2024-01-25T09:28:18;11.30;54.10
21807;DHT22;11065;50.786;7.840;2024-01-25T09:30:47;11.30;54.20
21807;DHT22;11065;50.786;7.840;2024-01-25T09:33:18;11.30;54.40
21807;DHT22;11065;50.786;7.840;2024-01-25T09:35:47;11.30;54.20
21807;DHT22;11065;50.786;7.840;2024-01-25T09:38:17;11.30;54.20
21807;DHT22;11065;50.786;7.840;2024-01-25T09:40:46;11.40;54.20
21807;DHT22;11065;50.786;7.840;2024-01-25T09:43:15;11.30;54.20
21807;DHT22;11065;50.786;7.840;2024-01-25T09:45:44;11.40;54.20
21807;DHT22;11065;50.786;7.840;2024-01-25T09:48:13;11.40;54.30
21807;DHT22;11065;50.786;7.840;2024-01-25T09:50:42;11.40;54.30
21807;DHT22;11065;50.786;7.840;2024-01-25T09:53:17;11.40;54.30
21807;DHT22;11065;50.786;7.840;2024-01-25T09:55:48;11.50;54.40
21807;DHT22;11065;50.786;7.840;2024-01-25T09:58:21;11.50;54.40
21807;DHT22;11065;50.786;7.840;2024-01-25T10:00:49;11.50;54.40
21807;DHT22;11065;50.786;7.840;2024-01-25T10:03:17;11.50;54.30
21807;DHT22;11065;50.786;7.840;2024-01-25T10:05:45;11.60;54.20
21807;DHT22;11065;50.786;7.840;2024-01-25T10:08:15;11.60;54.20
21807;DHT22;11065;50.786;7.840;2024-01-25T10:10:44;11.60;54.10
21807;DHT22;11065;50.786;7.840;2024-01-25T10:13:12;11.70;54.00
21807;DHT22;11065;50.786;7.840;2024-01-25T10:15:41;11.60;54.00
21807;DHT22;11065;50.786;7.840;2024-01-25T10:18:11;11.70;54.00
21807;DHT22;11065;50.786;7.840;2024-01-25T10:20:55;11.70;54.00
21807;DHT22;11065;50.786;7.840;2024-01-25T10:23:25;11.70;54.00
21807;DHT22;11065;50.786;7.840;2024-01-25T10:25:53;11.80;53.90
21807;DHT22;11065;50.786;7.840;2024-01-25T10:28:23;11.80;53.90
21807;DHT22;11065;50.786;7.840;2024-01-25T10:30:56;11.80;54.00
21807;DHT22;11065;50.786;7.840;2024-01-25T10:33:26;11.90;54.00
21807;DHT22;11065;50.786;7.840;2024-01-25T10:35:55;11.90;54.10
21807;DHT22;11065;50.786;7.840;2024-01-25T10:38:31;12.00;54.00
21807;DHT22;11065;50.786;7.840;2024-01-25T10:41:00;12.00;54.10
21807;DHT22;11065;50.786;7.840;2024-01-25T10:43:29;12.10;54.10
21807;DHT22;11065;50.786;7.840;2024-01-25T10:45:59;12.20;54.10
21807;DHT22;11065;50.786;7.840;2024-01-25T10:48:31;12.40;54.10
21807;DHT22;11065;50.786;7.840;2024-01-25T10:51:00;12.40;54.00
21807;DHT22;11065;50.786;7.840;2024-01-25T10:53:33;12.60;53.60
21807;DHT22;11065;50.786;7.840;2024-01-25T10:56:02;12.60;53.30
21807;DHT22;11065;50.786;7.840;2024-01-25T10:58:31;12.70;53.40
21807;DHT22;11065;50.786;7.840;2024-01-25T11:01:08;12.70;53.60
21807;DHT22;11065;50.786;7.840;2024-01-25T11:03:42;12.70;52.60
21807;DHT22;11065;50.786;7.840;2024-01-25T11:06:11;12.80;52.90
21807;DHT22;11065;50.786;7.840;2024-01-25T11:08:41;12.80;53.00
21807;DHT22;11065;50.786;7.840;2024-01-25T11:11:11;12.80;53.20
21807;DHT22;11065;50.786;7.840;2024-01-25T11:13:41;13.00;53.40
21807;DHT22;11065;50.786;7.840;2024-01-25T11:16:16;13.20;53.50
21807;DHT22;11065;50.786;7.840;2024-01-25T11:18:48;13.30;53.30
21807;DHT22;11065;50.786;7.840;2024-01-25T11:21:28;13.40;53.20
21807;DHT22;11065;50.786;7.840;2024-01-25T11:24:02;13.60;52.90
21807;DHT22;11065;50.786;7.840;2024-01-25T11:26:32;13.70;52.70
21807;DHT22;11065;50.786;7.840;2024-01-25T11:29:01;13.80;52.70
21807;DHT22;11065;50.786;7.840;2024-01-25T11:31:29;13.90;52.70
21807;DHT22;11065;50.786;7.840;2024-01-25T11:33:58;14.10;52.20
21807;DHT22;11065;50.786;7.840;2024-01-25T11:36:27;14.10;52.10
21807;DHT22;11065;50.786;7.840;2024-01-25T11:38:56;14.20;52.00
21807;DHT22;11065;50.786;7.840;2024-01-25T11:41:26;14.30;51.70
21807;DHT22;11065;50.786;7.840;2024-01-25T11:43:54;14.40;51.60
21807;DHT22;11065;50.786;7.840;2024-01-25T11:46:22;14.40;51.50
21807;DHT22;11065;50.786;7.840;2024-01-25T11:48:50;14.50;51.40
21807;DHT22;11065;50.786;7.840;2024-01-25T11:51:18;14.50;51.40
21807;DHT22;11065;50.786;7.840;2024-01-25T11:53:46;14.60;51.60
21807;DHT22;11065;50.786;7.840;2024-01-25T11:56:16;14.70;51.90
21807;DHT22;11065;50.786;7.840;2024-01-25T11:58:47;14.90;51.80
21807;DHT22;11065;50.786;7.840;2024-01-25T12:01:16;15.10;52.00
21807;DHT22;11065;50.786;7.840;2024-01-25T12:03:44;15.30;51.90
21807;DHT22;11065;50.786;7.840;2024-01-25T12:06:12;15.50;51.40
21807;DHT22;11065;50.786;7.840;2024-01-25T12:08:41;15.70;51.10
21807;DHT22;11065;50.786;7.840;2024-01-25T12:11:10;15.80;50.90
21807;DHT22;11065;50.786;7.840;2024-01-25T12:13:40;15.90;50.70
21807;DHT22;11065;50.786;7.840;2024-01-25T12:16:10;15.90;50.40
21807;DHT22;11065;50.786;7.840;2024-01-25T12:18:40;16.00;50.30
21807;DHT22;11065;50.786;7.840;2024-01-25T12:21:09;16.10;50.20
21807;DHT22;11065;50.786;7.840;2024-01-25T12:23:38;16.10;50.00
21807;DHT22;11065;50.786;7.840;2024-01-25T12:26:08;16.10;50.30
21807;DHT22;11065;50.786;7.840;2024-01-25T12:28:41;16.10;49.60
21807;DHT22;11065;50.786;7.840;2024-01-25T12:31:10;16.10;49.40
21807;DHT22;11065;50.786;7.840;2024-01-25T12:33:41;16.10;49.20
21807;DHT22;11065;50.786;7.840;2024-01-25T12:36:10;16.10;48.90
21807;DHT22;11065;50.786;7.840;2024-01-25T12:38:38;16.00;48.70
21807;DHT22;11065;50.786;7.840;2024-01-25T12:41:06;15.90;48.60
21807;DHT22;11065;50.786;7.840;2024-01-25T12:43:35;15.80;48.40
21807;DHT22;11065;50.786;7.840;2024-01-25T12:46:03;15.70;48.40
21807;DHT22;11065;50.786;7.840;2024-01-25T12:48:49;15.60;48.30
21807;DHT22;11065;50.786;7.840;2024-01-25T12:51:22;15.50;48.30
21807;DHT22;11065;50.786;7.840;2024-01-25T12:53:50;15.40;48.30
21807;DHT22;11065;50.786;7.840;2024-01-25T12:56:18;15.20;48.20
21807;DHT22;11065;50.786;7.840;2024-01-25T12:58:47;15.20;48.30
21807;DHT22;11065;50.786;7.840;2024-01-25T13:01:15;15.00;48.30
21807;DHT22;11065;50.786;7.840;2024-01-25T13:03:43;14.90;48.40
21807;DHT22;11065;50.786;7.840;2024-01-25T13:06:15;14.90;48.40
21807;DHT22;11065;50.786;7.840;2024-01-25T13:08:43;14.80;48.40
21807;DHT22;11065;50.786;7.840;2024-01-25T13:11:12;14.70;48.20
21807;DHT22;11065;50.786;7.840;2024-01-25T13:13:40;14.60;48.30
21807;DHT22;11065;50.786;7.840;2024-01-25T13:16:08;14.60;48.30
21807;DHT22;11065;50.786;7.840;2024-01-25T13:18:36;14.60;48.50
21807;DHT22;11065;50.786;7.840;2024-01-25T13:21:04;14.40;48.50
21807;DHT22;11065;50.786;7.840;2024-01-25T13:23:34;14.40;49.00
21807;DHT22;11065;50.786;7.840;2024-01-25T13:26:02;14.30;48.60
21807;DHT22;11065;50.786;7.840;2024-01-25T13:28:30;14.30;48.60
21807;DHT22;11065;50.786;7.840;2024-01-25T13:30:59;14.20;48.80
21807;DHT22;11065;50.786;7.840;2024-01-25T13:33:27;14.20;48.70
21807;DHT22;11065;50.786;7.840;2024-01-25T13:35:55;14.20;48.60
21807;DHT22;11065;50.786;7.840;2024-01-25T13:38:23;14.20;48.70
21807;DHT22;11065;50.786;7.840;2024-01-25T13:40:53;14.10;48.60
21807;DHT22;11065;50.786;7.840;2024-01-25T13:43:22;14.10;48.50
21807;DHT22;11065;50.786;7.840;2024-01-25T13:45:50;14.10;48.50
21807;DHT22;11065;50.786;7.840;2024-01-25T13:48:18;14.00;48.40
21807;DHT22;11065;50.786;7.840;2024-01-25T13:50:46;14.00;48.40
21807;DHT22;11065;50.786;7.840;2024-01-25T13:53:15;13.90;47.90
21807;DHT22;11065;50.786;7.840;2024-01-25T13:55:44;13.90;48.30
21807;DHT22;11065;50.786;7.840;2024-01-25T13:58:13;13.80;48.30
21807;DHT22;11065;50.786;7.840;2024-01-25T14:00:42;13.80;48.30
21807;DHT22;11065;50.786;7.840;2024-01-25T14:03:11;13.70;48.40
21807;DHT22;11065;50.786;7.840;2024-01-25T14:05:39;13.80;48.50
21807;DHT22;11065;50.786;7.840;2024-01-25T14:08:09;13.80;48.60
21807;DHT22;11065;50.786;7.840;2024-01-25T14:10:37;13.80;48.80
21807;DHT22;11065;50.786;7.840;2024-01-25T14:13:05;13.80;49.00
21807;DHT22;11065;50.786;7.840;2024-01-25T14:15:35;13.90;49.00
21807;DHT22;11065;50.786;7.840;2024-01-25T14:18:03;14.00;48.80
21807;DHT22;11065;50.786;7.840;2024-01-25T14:20:32;14.10;48.80
21807;DHT22;11065;50.786;7.840;2024-01-25T14:23:01;14.20;48.70
21807;DHT22;11065;50.786;7.840;2024-01-25T14:25:29;14.30;48.40
21807;DHT22;11065;50.786;7.840;2024-01-25T14:27:57;14.30;48.30
21807;DHT22;11065;50.786;7.840;2024-01-25T14:30:25;14.30;48.20
21807;DHT22;11065;50.786;7.840;2024-01-25T14:32:55;14.30;48.10
21807;DHT22;11065;50.786;7.840;2024-01-25T14:35:24;14.30;48.00
21807;DHT22;11065;50.786;7.840;2024-01-25T14:37:55;14.40;48.00
21807;DHT22;11065;50.786;7.840;2024-01-25T14:40:24;14.30;47.90
21807;DHT22;11065;50.786;7.840;2024-01-25T14:43:12;14.30;47.80
21807;DHT22;11065;50.786;7.840;2024-01-25T14:45:40;14.30;47.80
21807;DHT22;11065;50.786;7.840;2024-01-25T14:48:10;14.20;47.80
21807;DHT22;11065;50.786;7.840;2024-01-25T14:50:39;14.20;47.70
21807;DHT22;11065;50.786;7.840;2024-01-25T14:53:09;14.10;47.70
21807;DHT22;11065;50.786;7.840;2024-01-25T14:55:37;14.00;47.60
21807;DHT22;11065;50.786;7.840;2024-01-25T14:58:05;14.00;47.70
21807;DHT22;11065;50.786;7.840;2024-01-25T15:00:34;14.00;47.80
21807;DHT22;11065;50.786;7.840;2024-01-25T15:03:03;13.90;47.80
21807;DHT22;11065;50.786;7.840;2024-01-25T15:05:31;13.90;47.90
21807;DHT22;11065;50.786;7.840;2024-01-25T15:07:59;13.80;48.10
21807;DHT22;11065;50.786;7.840;2024-01-25T15:10:27;13.80;48.20
21807;DHT22;11065;50.786;7.840;2024-01-25T15:12:58;13.80;48.30
21807;DHT22;11065;50.786;7.840;2024-01-25T15:15:26;13.70;48.30
21807;DHT22;11065;50.786;7.840;2024-01-25T15:17:55;13.70;48.30
21807;DHT22;11065;50.786;7.840;2024-01-25T15:20:23;13.60;48.20
21807;DHT22;11065;50.786;7.840;2024-01-25T15:22:52;13.60;48.20
21807;DHT22;11065;50.786;7.840;2024-01-25T15:25:23;13.50;48.10
21807;DHT22;11065;50.786;7.840;2024-01-25T15:27:53;13.50;48.20
21807;DHT22;11065;50.786;7.840;2024-01-25T15:30:21;13.50;48.30
21807;DHT22;11065;50.786;7.840;2024-01-25T15:32:49;13.40;48.40
21807;DHT22;11065;50.786;7.840;2024-01-25T15:35:18;13.40;48.50
21807;DHT22;11065;50.786;7.840;2024-01-25T15:37:46;13.40;48.60
21807;DHT22;11065;50.786;7.840;2024-01-25T15:40:17;13.40;48.60